Time;durP1;ratioP1;P1;durP2;ratioP2;P2;SDS_P1;SDS_P2;PMS_P1;PMS_P2;Temp;Humidity;BMP_temperature;BMP_pressure;BME280_temperature;BME280_humidity;BME280_pressure;Samples;Min_cycle;Max_cycle;Signal;HPM_P1;HPM_P2
2023/12/21 00:01:22;;;;;;;6.60;2.40;;;7.30;99.90;;;;;;5030074;28;20823;-75
2023/12/21 00:03:48;;;;;;;4.37;1.23;;;7.40;99.90;;;;;;5037264;28;20977;-76
2023/12/21 00:06:17;;;;;;;2.93;1.43;;;7.40;99.90;;;;;;5038603;28;20551;-74
2023/12/21 00:08:46;;;;;;;2.30;1.00;;;7.50;99.90;;;;;;5036727;28;20567;-73
2023/12/21 00:11:13;;;;;;;1.73;1.17;;;;;;;;;;5035855;28;20563;-74
2023/12/21 00:13:40;;;;;;;1.97;1.43;;;7.40;99.90;;;;;;5034511;28;21284;-75
2023/12/21 00:16:08;;;;;;;16.23;2.20;;;7.40;99.90;;;;;;5032879;28;20513;-76
2023/12/21 00:18:35;;;;;;;1.80;1.07;;;7.40;99.90;;;;;;5057637;28;20480;-76
2023/12/21 00:21:02;;;;;;;7.20;1.17;;;7.40;99.90;;;;;;5035779;28;20525;-76
2023/12/21 00:23:30;;;;;;;4.60;1.30;;;7.40;99.90;;;;;;5032350;28;20554;-77
2023/12/21 00:25:57;;;;;;;1.50;0.80;;;7.50;99.90;;;;;;5032033;28;20476;-77
2023/12/21 00:28:24;;;;;;;1.57;0.73;;;7.40;99.90;;;;;;5035481;28;20494;-76
2023/12/21 00:30:51;;;;;;;9.27;1.60;;;7.40;99.90;;;;;;5034927;28;20563;-74
2023/12/21 00:33:17;;;;;;;1.77;1.07;;;7.30;99.90;;;;;;5034085;28;20559;-78
2023/12/21 00:35:45;;;;;;;1.70;1.10;;;7.30;99.90;;;;;;5039243;28;21030;-76
2023/12/21 00:38:11;;;;;;;18.10;2.30;;;7.30;99.90;;;;;;5040511;28;20507;-77
2023/12/21 00:40:39;;;;;;;1.60;0.70;;;7.40;99.90;;;;;;5037741;28;20568;-76
2023/12/21 00:43:07;;;;;;;1.60;1.20;;;7.40;99.90;;;;;;5049962;28;20511;-74
2023/12/21 00:45:33;;;;;;;1.53;0.80;;;7.40;99.90;;;;;;5067250;28;20484;-78
2023/12/21 00:48:00;;;;;;;4.30;0.97;;;7.40;99.90;;;;;;5039892;28;20566;-75
2023/12/21 00:50:27;;;;;;;1.50;0.80;;;7.40;99.90;;;;;;5037924;28;20570;-76
2023/12/21 00:52:54;;;;;;;1.60;0.80;;;7.40;99.90;;;;;;5038362;28;20959;-75
2023/12/21 00:55:20;;;;;;;9.13;1.23;;;7.40;99.90;;;;;;5035404;28;20547;-73
2023/12/21 00:57:49;;;;;;;17.33;2.10;;;7.40;99.90;;;;;;5040221;28;20641;-71
2023/12/21 01:00:16;;;;;;;1.50;0.70;;;7.40;99.90;;;;;;5052474;28;21100;-73
2023/12/21 01:02:43;;;;;;;5.10;0.83;;;7.40;99.90;;;;;;5045460;28;20526;-75
2023/12/21 01:05:10;;;;;;;1.97;1.00;;;7.40;99.90;;;;;;5035143;28;20504;-75
2023/12/21 01:07:36;;;;;;;9.70;1.27;;;7.30;99.90;;;;;;5040674;28;20507;-77
2023/12/21 01:10:05;;;;;;;3.60;0.70;;;7.30;99.90;;;;;;5039585;28;20565;-74
2023/12/21 01:12:32;;;;;;;1.70;1.00;;;7.30;99.90;;;;;;5036994;28;20885;-77
2023/12/21 01:15:01;;;;;;;1.70;1.03;;;7.40;99.90;;;;;;5040030;28;20994;-77
2023/12/21 01:17:28;;;;;;;1.50;0.67;;;;;;;;;;5047410;28;20515;-77
2023/12/21 01:19:55;;;;;;;1.63;0.83;;;7.50;99.90;;;;;;5040801;28;20553;-76
2023/12/21 01:22:21;;;;;;;1.40;0.60;;;7.50;99.90;;;;;;5051017;28;20474;-74
2023/12/21 01:24:48;;;;;;;6.50;1.30;;;;;;;;;;5047251;28;20503;-77
2023/12/21 01:27:15;;;;;;;4.60;1.00;;;7.40;99.90;;;;;;5028682;28;20594;-78
2023/12/21 01:29:42;;;;;;;1.40;0.60;;;7.40;99.90;;;;;;5053574;28;20507;-78
2023/12/21 01:32:10;;;;;;;10.00;1.40;;;7.40;99.90;;;;;;5038563;28;20553;-79
2023/12/21 01:34:37;;;;;;;1.50;0.70;;;7.40;99.90;;;;;;5045444;28;20850;-79
2023/12/21 01:37:04;;;;;;;1.50;0.70;;;7.40;99.90;;;;;;5050975;28;20897;-74
2023/12/21 01:39:31;;;;;;;1.60;0.80;;;7.50;99.90;;;;;;5060099;28;20502;-76
2023/12/21 01:41:58;;;;;;;4.13;0.80;;;7.50;99.90;;;;;;5062912;28;20529;-73
2023/12/21 01:44:24;;;;;;;1.60;1.00;;;7.40;99.90;;;;;;5058671;28;20498;-79
2023/12/21 01:46:52;;;;;;;1.50;0.80;;;7.30;99.90;;;;;;5052065;28;20513;-75
2023/12/21 01:49:21;;;;;;;1.60;0.90;;;7.40;99.90;;;;;;5075862;28;20566;-79
2023/12/21 01:51:48;;;;;;;1.50;0.83;;;7.40;99.90;;;;;;5058335;28;20570;-72
2023/12/21 01:54:15;;;;;;;1.60;1.10;;;7.30;99.90;;;;;;5058581;28;20482;-74
2023/12/21 01:56:42;;;;;;;1.73;1.00;;;7.30;99.90;;;;;;5062306;28;21001;-75
2023/12/21 01:59:09;;;;;;;1.40;0.60;;;;;;;;;;5061829;28;20569;-73
2023/12/21 02:01:39;;;;;;;5.30;1.00;;;7.60;99.90;;;;;;5058866;28;20482;-72
2023/12/21 02:04:06;;;;;;;1.57;0.90;;;7.50;99.90;;;;;;5044660;28;20507;-71
2023/12/21 02:06:35;;;;;;;7.10;1.47;;;7.50;99.90;;;;;;5060281;28;20470;-73
2023/12/21 02:09:01;;;;;;;1.57;0.70;;;7.50;99.90;;;;;;5063132;28;20470;-71
2023/12/21 02:11:28;;;;;;;2.07;1.67;;;7.60;99.90;;;;;;5061947;28;21229;-73
2023/12/21 02:13:55;;;;;;;4.43;1.27;;;;;;;;;;5062474;28;20872;-74
2023/12/21 02:16:28;;;;;;;5.83;1.27;;;7.50;99.90;;;;;;5047479;28;20511;-74
2023/12/21 02:18:55;;;;;;;1.57;0.90;;;7.50;99.90;;;;;;5070126;28;20554;-75
2023/12/21 02:21:23;;;;;;;1.70;0.70;;;7.60;99.90;;;;;;5056212;28;20567;-73
2023/12/21 02:23:53;;;;;;;4.13;0.90;;;7.60;99.90;;;;;;5067777;28;20566;-75
2023/12/21 02:26:22;;;;;;;1.70;1.00;;;7.60;99.90;;;;;;5058308;28;20494;-73
2023/12/21 02:28:49;;;;;;;1.70;1.00;;;7.60;99.90;;;;;;5063020;28;20475;-75
2023/12/21 02:31:16;;;;;;;1.63;1.00;;;7.60;99.90;;;;;;5050261;28;20553;-74
2023/12/21 02:33:42;;;;;;;4.40;1.07;;;7.50;99.90;;;;;;5060793;28;20506;-72
2023/12/21 02:36:09;;;;;;;1.50;0.83;;;7.50;99.90;;;;;;5062078;28;21169;-74
2023/12/21 02:38:37;;;;;;;7.20;1.03;;;7.60;99.90;;;;;;5061508;28;20511;-72
2023/12/21 02:41:04;;;;;;;5.80;1.20;;;7.60;99.90;;;;;;5065328;28;20547;-74
2023/12/21 02:43:32;;;;;;;4.07;0.80;;;7.70;99.90;;;;;;5040778;28;20533;-73
2023/12/21 02:45:59;;;;;;;1.70;0.90;;;7.60;99.90;;;;;;5066557;28;21213;-76
2023/12/21 02:48:26;;;;;;;1.70;1.00;;;7.60;99.90;;;;;;5044754;28;20947;-74
2023/12/21 02:50:55;;;;;;;8.60;1.07;;;7.60;99.90;;;;;;5063310;28;20566;-78
2023/12/21 02:53:22;;;;;;;1.60;0.80;;;;;;;;;;5062572;28;20561;-76
2023/12/21 02:55:49;;;;;;;13.60;1.37;;;7.60;99.90;;;;;;5060714;28;20510;-78
2023/12/21 02:58:16;;;;;;;1.50;0.70;;;7.80;99.90;;;;;;5045021;28;20558;-72
2023/12/21 03:00:44;;;;;;;1.60;0.80;;;7.60;99.90;;;;;;5061599;28;20557;-73
2023/12/21 03:03:09;;;;;;;1.60;0.80;;;7.80;99.90;;;;;;5041547;28;20527;-71
2023/12/21 03:05:36;;;;;;;1.50;0.70;;;7.80;99.90;;;;;;5066608;28;20873;-74
2023/12/21 03:08:04;;;;;;;7.03;0.97;;;7.80;99.90;;;;;;5061136;28;20267;-74
2023/12/21 03:10:30;;;;;;;4.37;1.03;;;7.80;99.90;;;;;;5061065;28;21220;-72
2023/12/21 03:12:57;;;;;;;2.43;0.70;;;7.80;99.90;;;;;;5046981;28;20989;-72
2023/12/21 03:15:24;;;;;;;3.90;1.33;;;7.80;99.90;;;;;;5060834;28;21026;-75
2023/12/21 03:17:53;;;;;;;1.50;0.73;;;7.70;99.90;;;;;;5055841;28;20931;-75
2023/12/21 03:20:19;;;;;;;1.50;0.80;;;7.70;99.90;;;;;;5062532;28;20559;-76
2023/12/21 03:22:46;;;;;;;1.60;0.70;;;7.80;99.90;;;;;;5064468;28;20562;-76
2023/12/21 03:25:13;;;;;;;6.33;1.27;;;7.70;99.90;;;;;;5056617;28;20562;-75
2023/12/21 03:27:40;;;;;;;1.50;0.70;;;7.80;99.90;;;;;;5052125;28;20556;-73
2023/12/21 03:30:08;;;;;;;1.73;1.07;;;;;;;;;;5042838;28;20491;-74
2023/12/21 03:32:35;;;;;;;1.50;0.80;;;7.80;99.90;;;;;;5052353;28;21168;-74
2023/12/21 03:35:05;;;;;;;1.70;1.03;;;7.80;99.90;;;;;;5052218;28;20541;-78
2023/12/21 03:37:32;;;;;;;1.70;0.83;;;7.80;99.90;;;;;;5051180;28;20479;-76
2023/12/21 03:39:58;;;;;;;2.70;0.73;;;7.80;99.90;;;;;;5047801;28;20916;-74
2023/12/21 03:42:25;;;;;;;1.50;0.80;;;7.80;99.90;;;;;;5048397;28;20534;-77
2023/12/21 03:44:52;;;;;;;6.60;1.83;;;7.80;99.90;;;;;;5040396;28;20994;-76
2023/12/21 03:47:19;;;;;;;1.60;0.80;;;7.90;99.90;;;;;;5043384;28;21122;-74
2023/12/21 03:49:46;;;;;;;8.10;1.47;;;7.90;99.90;;;;;;5046720;28;21055;-75
2023/12/21 03:52:14;;;;;;;2.47;1.20;;;7.90;99.90;;;;;;5059717;28;20514;-75
2023/12/21 03:54:41;;;;;;;1.50;0.80;;;7.90;99.90;;;;;;5042764;28;20605;-75
2023/12/21 03:57:08;;;;;;;4.43;0.90;;;7.80;99.90;;;;;;5069469;28;20514;-73
2023/12/21 03:59:35;;;;;;;16.03;1.90;;;7.90;99.90;;;;;;5058065;28;20475;-75
2023/12/21 04:02:02;;;;;;;1.60;0.80;;;7.80;99.90;;;;;;5065476;28;22002;-72
2023/12/21 04:04:31;;;;;;;1.50;0.77;;;7.90;99.90;;;;;;5042816;28;20502;-75
2023/12/21 04:06:58;;;;;;;1.53;0.73;;;7.80;99.90;;;;;;5060879;28;20490;-77
2023/12/21 04:09:26;;;;;;;9.17;1.30;;;;;;;;;;5065877;28;20516;-72
2023/12/21 04:11:53;;;;;;;1.60;1.00;;;7.90;99.90;;;;;;5048995;28;20496;-75
2023/12/21 04:14:20;;;;;;;1.53;0.70;;;7.80;99.90;;;;;;5047450;28;20578;-79
2023/12/21 04:16:48;;;;;;;1.50;0.70;;;7.80;99.90;;;;;;5068223;28;21276;-79
2023/12/21 04:19:15;;;;;;;7.53;1.33;;;7.60;99.90;;;;;;5063478;28;20475;-76
2023/12/21 04:21:43;;;;;;;1.43;0.70;;;7.80;99.90;;;;;;5040224;28;20585;-75
2023/12/21 04:24:10;;;;;;;10.40;1.47;;;7.80;99.90;;;;;;5039195;28;20542;-76
2023/12/21 04:26:39;;;;;;;1.90;0.90;;;7.80;99.90;;;;;;5057054;28;20569;-77
2023/12/21 04:29:06;;;;;;;1.60;0.80;;;7.80;99.90;;;;;;5044618;28;20539;-75
2023/12/21 04:31:33;;;;;;;5.63;1.00;;;7.80;99.90;;;;;;5039734;28;20982;-77
2023/12/21 04:34:00;;;;;;;1.87;0.90;;;7.90;99.90;;;;;;5039577;28;20482;-75
2023/12/21 04:36:28;;;;;;;1.70;0.90;;;7.90;99.90;;;;;;5038487;28;20495;-75
2023/12/21 04:38:56;;;;;;;1.60;0.90;;;7.90;99.90;;;;;;5039839;28;20491;-77
2023/12/21 04:41:23;;;;;;;1.50;0.70;;;8.00;99.90;;;;;;5037873;28;20480;-74
2023/12/21 04:43:51;;;;;;;1.50;0.70;;;8.00;99.90;;;;;;5040097;28;20947;-74
2023/12/21 04:46:19;;;;;;;1.60;0.70;;;8.00;99.90;;;;;;5043273;28;20475;-73
2023/12/21 04:48:46;;;;;;;2.30;0.90;;;8.00;99.90;;;;;;5040317;28;20815;-74
2023/12/21 04:51:15;;;;;;;1.50;0.70;;;;;;;;;;5040739;28;20529;-75
2023/12/21 04:53:42;;;;;;;4.37;1.20;;;7.90;99.90;;;;;;5053659;28;20541;-78
2023/12/21 04:56:09;;;;;;;5.13;0.87;;;7.90;99.90;;;;;;5059099;28;20979;-75
2023/12/21 04:58:37;;;;;;;10.87;1.63;;;7.90;99.90;;;;;;5056891;28;20467;-75
2023/12/21 05:01:07;;;;;;;1.50;0.67;;;8.00;99.90;;;;;;5053749;28;20466;-75
2023/12/21 05:03:34;;;;;;;1.60;0.97;;;8.10;99.90;;;;;;5030289;28;20486;-72
2023/12/21 05:06:01;;;;;;;1.40;0.60;;;8.10;99.90;;;;;;5059714;28;20507;-75
2023/12/21 05:08:29;;;;;;;5.50;1.00;;;8.10;99.90;;;;;;5060897;28;20510;-75
2023/12/21 05:10:56;;;;;;;1.50;0.77;;;8.10;99.90;;;;;;5058009;28;20937;-77
2023/12/21 05:13:23;;;;;;;1.50;0.90;;;7.90;99.90;;;;;;5063171;28;21026;-76
2023/12/21 05:15:49;;;;;;;3.93;0.90;;;8.00;99.90;;;;;;5038569;28;20511;-74
2023/12/21 05:18:18;;;;;;;1.40;0.63;;;8.00;99.90;;;;;;5036560;28;20524;-75
2023/12/21 05:20:44;;;;;;;1.50;0.70;;;8.00;99.90;;;;;;5054854;28;21071;-76
2023/12/21 05:23:11;;;;;;;1.50;0.60;;;8.00;99.90;;;;;;5058245;28;20916;-73
2023/12/21 05:25:38;;;;;;;3.93;0.90;;;8.00;99.90;;;;;;5059334;28;20487;-74
2023/12/21 05:28:05;;;;;;;1.50;0.60;;;8.00;99.90;;;;;;5060168;28;20511;-75
2023/12/21 05:30:32;;;;;;;1.50;0.80;;;7.90;99.90;;;;;;5051177;28;21249;-72
2023/12/21 05:32:58;;;;;;;4.43;1.03;;;8.00;99.90;;;;;;5060727;28;20474;-75
2023/12/21 05:35:27;;;;;;;1.60;0.80;;;8.00;99.90;;;;;;5064820;28;20561;-78
2023/12/21 05:37:53;;;;;;;1.50;0.70;;;8.10;99.90;;;;;;5058285;28;20553;-78
2023/12/21 05:40:22;;;;;;;5.57;1.00;;;8.20;99.90;;;;;;5054386;28;20572;-78
2023/12/21 05:42:49;;;;;;;1.50;0.70;;;8.10;99.90;;;;;;5059015;28;20490;-79
2023/12/21 05:45:15;;;;;;;1.50;0.70;;;8.10;99.90;;;;;;5058432;28;20916;-79
2023/12/21 05:47:42;;;;;;;1.60;0.80;;;8.10;99.90;;;;;;5057818;28;20532;-77
2023/12/21 05:50:10;;;;;;;1.60;0.80;;;8.20;99.90;;;;;;5060183;28;20840;-78
2023/12/21 05:52:38;;;;;;;1.70;0.80;;;8.00;99.90;;;;;;5058075;28;20888;-74
2023/12/21 05:55:06;;;;;;;1.80;0.70;;;8.00;99.90;;;;;;5044410;28;20904;-73
2023/12/21 05:57:32;;;;;;;1.50;0.70;;;8.10;99.90;;;;;;5064334;28;20549;-75
2023/12/21 05:59:59;;;;;;;1.50;0.70;;;8.10;99.90;;;;;;5055676;28;20576;-74
2023/12/21 06:02:26;;;;;;;4.23;0.87;;;8.20;99.90;;;;;;5064809;28;20510;-74
2023/12/21 06:04:53;;;;;;;2.17;1.00;;;8.10;99.90;;;;;;5040604;28;20625;-77
2023/12/21 06:07:20;;;;;;;11.97;2.20;;;8.10;99.90;;;;;;5050752;28;20535;-75
2023/12/21 06:09:49;;;;;;;1.50;0.80;;;8.10;99.90;;;;;;5043696;28;20498;-74
2023/12/21 06:12:15;;;;;;;1.90;1.47;;;8.10;99.90;;;;;;5032977;28;20492;-76
2023/12/21 06:14:43;;;;;;;7.23;1.40;;;8.20;99.90;;;;;;5040971;28;20692;-74
2023/12/21 06:17:11;;;;;;;7.83;1.40;;;8.00;99.90;;;;;;5060412;28;20970;-73
2023/12/21 06:19:38;;;;;;;2.83;1.13;;;8.10;99.90;;;;;;5057871;28;20482;-76
2023/12/21 06:22:05;;;;;;;1.60;0.80;;;8.10;99.90;;;;;;5053673;28;20569;-76
2023/12/21 06:24:32;;;;;;;1.83;1.00;;;8.20;99.90;;;;;;5055675;28;20478;-76
2023/12/21 06:27:02;;;;;;;1.80;1.00;;;8.20;99.90;;;;;;5044782;28;20916;-83
2023/12/21 06:29:29;;;;;;;1.70;1.23;;;8.30;99.90;;;;;;5042623;28;20487;-75
2023/12/21 06:31:56;;;;;;;4.23;1.07;;;8.30;99.90;;;;;;5038983;28;20478;-73
2023/12/21 06:34:25;;;;;;;1.90;1.10;;;8.30;99.90;;;;;;5040628;28;21368;-74
2023/12/21 06:36:52;;;;;;;6.03;1.20;;;8.30;99.90;;;;;;5035706;28;20629;-75
2023/12/21 06:39:19;;;;;;;1.70;0.80;;;8.40;99.90;;;;;;5036655;28;20627;-72
2023/12/21 06:41:46;;;;;;;12.23;1.33;;;8.30;99.90;;;;;;5044583;28;20526;-74
2023/12/21 06:44:15;;;;;;;1.90;1.40;;;8.30;99.90;;;;;;5040661;28;20495;-73
2023/12/21 06:46:42;;;;;;;1.60;0.90;;;8.20;99.90;;;;;;5059274;28;20518;-76
2023/12/21 06:49:10;;;;;;;5.03;1.43;;;8.30;99.90;;;;;;5054451;28;20498;-78
2023/12/21 06:51:37;;;;;;;16.00;1.83;;;8.20;99.90;;;;;;5045893;28;20491;-71
2023/12/21 06:54:04;;;;;;;3.10;1.00;;;8.20;99.90;;;;;;5049624;28;20970;-78
2023/12/21 06:56:31;;;;;;;1.60;0.80;;;8.20;99.90;;;;;;5037286;28;20506;-77
2023/12/21 06:58:58;;;;;;;1.60;0.93;;;8.20;99.90;;;;;;5035451;28;20575;-72
2023/12/21 07:01:27;;;;;;;1.73;1.17;;;8.20;99.90;;;;;;5048819;28;20573;-72
2023/12/21 07:03:54;;;;;;;4.07;0.90;;;8.20;99.90;;;;;;5042398;28;20503;-72
2023/12/21 07:06:21;;;;;;;2.53;1.60;;;8.20;99.90;;;;;;5052568;28;21345;-74
2023/12/21 07:08:48;;;;;;;1.60;0.90;;;8.20;99.90;;;;;;5050098;28;20579;-72
2023/12/21 07:11:17;;;;;;;4.00;0.90;;;8.30;99.90;;;;;;5047738;28;20542;-73
2023/12/21 07:13:43;;;;;;;1.60;0.80;;;8.20;99.90;;;;;;5046501;28;20484;-74
2023/12/21 07:16:11;;;;;;;8.60;1.60;;;8.20;99.90;;;;;;5040520;28;20471;-74
2023/12/21 07:18:39;;;;;;;1.70;1.00;;;8.30;99.90;;;;;;5041180;28;20546;-73
2023/12/21 07:21:07;;;;;;;2.10;1.17;;;8.30;99.90;;;;;;5041580;28;20506;-76
2023/12/21 07:23:34;;;;;;;4.37;1.03;;;8.40;99.90;;;;;;5042388;28;20554;-74
2023/12/21 07:26:00;;;;;;;1.57;0.70;;;8.40;99.90;;;;;;5041541;28;21159;-79
2023/12/21 07:28:28;;;;;;;2.10;1.50;;;8.40;99.90;;;;;;5042392;28;21050;-73
2023/12/21 07:30:55;;;;;;;1.70;0.90;;;8.40;99.90;;;;;;5061810;28;21286;-74
2023/12/21 07:33:22;;;;;;;1.60;0.90;;;8.50;99.90;;;;;;5059503;28;20533;-74
2023/12/21 07:35:50;;;;;;;1.60;1.00;;;8.40;99.90;;;;;;5041825;28;21135;-75
2023/12/21 07:38:17;;;;;;;8.50;1.37;;;8.50;99.90;;;;;;5061410;28;20491;-75
2023/12/21 07:40:44;;;;;;;1.70;1.00;;;8.50;99.90;;;;;;5055638;28;20578;-76
2023/12/21 07:43:11;;;;;;;2.07;1.00;;;8.50;99.90;;;;;;5052859;28;21183;-75
2023/12/21 07:45:37;;;;;;;18.53;2.03;;;8.40;99.90;;;;;;5045614;28;21045;-74
2023/12/21 07:48:05;;;;;;;2.93;1.20;;;8.40;99.90;;;;;;5052544;28;20494;-75
2023/12/21 07:50:32;;;;;;;12.17;2.10;;;8.50;99.90;;;;;;5062243;28;20567;-73
2023/12/21 07:53:02;;;;;;;1.63;1.00;;;8.40;99.90;;;;;;5042332;28;20554;-73
2023/12/21 07:55:29;;;;;;;1.60;1.10;;;8.30;99.90;;;;;;5059986;28;20471;-73
2023/12/21 07:57:56;;;;;;;8.80;1.30;;;8.40;99.90;;;;;;5053693;28;20503;-77
2023/12/21 08:00:22;;;;;;;1.60;1.00;;;8.30;99.90;;;;;;5030423;28;20569;-74
2023/12/21 08:02:49;;;;;;;4.20;1.27;;;8.40;99.90;;;;;;5044764;28;20567;-75
2023/12/21 08:05:16;;;;;;;3.70;1.07;;;8.40;99.90;;;;;;5040134;28;20578;-78
2023/12/21 08:07:43;;;;;;;11.87;1.33;;;8.50;99.90;;;;;;5033903;28;20527;-74
2023/12/21 08:10:11;;;;;;;1.80;1.13;;;8.60;99.90;;;;;;5053353;28;20562;-79
2023/12/21 08:12:38;;;;;;;8.77;1.10;;;8.50;99.90;;;;;;5038887;28;20511;-74
2023/12/21 08:15:06;;;;;;;1.60;1.00;;;8.50;99.90;;;;;;5042075;28;20567;-73
2023/12/21 08:17:34;;;;;;;5.37;1.60;;;8.40;99.90;;;;;;5038685;28;20848;-75
2023/12/21 08:20:00;;;;;;;1.60;0.73;;;8.50;99.90;;;;;;5022290;28;20479;-74
2023/12/21 08:22:27;;;;;;;1.50;0.73;;;8.50;99.90;;;;;;5031512;28;20478;-73
2023/12/21 08:24:56;;;;;;;7.00;2.20;;;8.40;99.90;;;;;;5037300;28;20503;-74
2023/12/21 08:27:25;;;;;;;5.93;1.00;;;8.50;99.90;;;;;;5039633;28;20745;-77
2023/12/21 08:29:52;;;;;;;11.13;1.60;;;8.60;99.90;;;;;;5042545;28;20616;-74
2023/12/21 08:32:19;;;;;;;4.37;0.80;;;8.50;99.90;;;;;;5040351;28;20565;-75
2023/12/21 08:34:46;;;;;;;1.50;0.70;;;;;;;;;;5036181;28;20514;-76
2023/12/21 08:37:13;;;;;;;1.90;1.20;;;8.60;99.90;;;;;;5040825;28;20581;-76
2023/12/21 08:39:41;;;;;;;6.70;1.20;;;8.70;99.90;;;;;;5047974;28;21037;-74
2023/12/21 08:42:09;;;;;;;1.53;0.93;;;8.60;99.90;;;;;;5047287;28;20573;-75
2023/12/21 08:44:38;;;;;;;1.80;1.20;;;8.70;99.90;;;;;;5040331;28;20487;-74
2023/12/21 08:47:05;;;;;;;1.60;0.90;;;8.80;99.90;;;;;;5045549;28;20876;-76
2023/12/21 08:49:32;;;;;;;1.50;0.70;;;8.80;99.90;;;;;;5048429;28;20549;-74
2023/12/21 08:51:59;;;;;;;1.70;1.00;;;8.90;99.90;;;;;;5038726;28;20576;-74
2023/12/21 08:54:27;;;;;;;1.70;0.90;;;8.90;99.90;;;;;;5019549;28;20478;-75
2023/12/21 08:56:54;;;;;;;1.50;0.80;;;8.90;99.90;;;;;;5039723;28;20567;-76
2023/12/21 08:59:21;;;;;;;41.67;3.73;;;8.80;99.90;;;;;;5039594;28;20472;-80
2023/12/21 09:01:51;;;;;;;1.67;0.80;;;9.00;99.90;;;;;;5040068;28;20486;-75
2023/12/21 09:04:18;;;;;;;1.70;0.73;;;9.00;99.90;;;;;;5051494;28;20479;-78
2023/12/21 09:06:45;;;;;;;17.73;2.20;;;9.10;99.90;;;;;;5048017;28;20515;-76
2023/12/21 09:09:13;;;;;;;1.70;0.93;;;9.10;99.90;;;;;;5049449;28;20553;-79
2023/12/21 09:11:40;;;;;;;4.60;0.80;;;9.20;99.90;;;;;;5039560;28;20476;-80
2023/12/21 09:14:07;;;;;;;2.83;0.70;;;9.20;99.90;;;;;;5042530;28;20601;-75
2023/12/21 09:16:34;;;;;;;1.60;0.60;;;9.10;99.90;;;;;;5038671;28;20521;-74
2023/12/21 09:19:03;;;;;;;1.50;0.60;;;9.20;99.90;;;;;;5039614;28;20559;-76
2023/12/21 09:21:30;;;;;;;2.67;0.90;;;9.10;99.90;;;;;;5043888;28;20491;-75
2023/12/21 09:23:58;;;;;;;3.00;0.67;;;9.20;99.90;;;;;;5045658;28;20518;-78
2023/12/21 09:26:25;;;;;;;1.93;0.70;;;9.20;99.90;;;;;;5052077;28;20484;-77
2023/12/21 09:28:52;;;;;;;7.17;1.90;;;9.30;99.90;;;;;;5038985;28;20574;-82
2023/12/21 09:31:19;;;;;;;6.23;1.20;;;9.20;99.90;;;;;;5031105;28;20772;-78
2023/12/21 09:33:46;;;;;;;25.07;2.83;;;9.30;99.90;;;;;;5013431;28;20507;-78
2023/12/21 09:36:16;;;;;;;1.50;0.60;;;9.40;99.90;;;;;;5047852;28;20839;-79
2023/12/21 09:38:43;;;;;;;1.57;0.70;;;9.30;99.90;;;;;;5046860;28;20521;-77
2023/12/21 09:41:10;;;;;;;3.07;1.00;;;9.30;99.90;;;;;;5052679;28;20490;-81
2023/12/21 09:43:41;;;;;;;10.00;1.27;;;9.30;99.90;;;;;;5055231;28;20560;-78
2023/12/21 09:46:09;;;;;;;2.53;0.70;;;9.40;99.90;;;;;;5043552;28;20903;-76
2023/12/21 09:48:38;;;;;;;1.50;0.60;;;9.40;99.90;;;;;;5050133;28;20575;-77
2023/12/21 09:51:05;;;;;;;1.90;0.80;;;9.40;99.90;;;;;;5038343;28;20769;-77
2023/12/21 09:53:36;;;;;;;6.20;0.80;;;9.40;99.90;;;;;;5049144;28;20554;-77
2023/12/21 09:56:04;;;;;;;1.60;0.90;;;9.40;99.90;;;;;;5034421;28;20591;-79
2023/12/21 09:58:33;;;;;;;1.60;0.90;;;9.50;99.90;;;;;;5047880;28;20523;-78
2023/12/21 10:01:00;;;;;;;1.50;0.60;;;;;;;;;;5050378;28;20515;-77
2023/12/21 10:03:27;;;;;;;8.23;1.27;;;9.20;99.90;;;;;;5042102;28;20480;-76
2023/12/21 10:05:54;;;;;;;4.13;0.97;;;9.20;99.90;;;;;;5041848;28;20467;-75
2023/12/21 10:08:21;;;;;;;4.17;0.87;;;9.30;99.90;;;;;;5042923;28;20566;-75
2023/12/21 10:10:49;;;;;;;1.40;0.60;;;9.30;99.90;;;;;;5045595;28;20539;-77
2023/12/21 10:13:16;;;;;;;3.97;0.70;;;9.40;99.90;;;;;;5041891;28;20571;-77
2023/12/21 10:15:46;;;;;;;5.43;0.93;;;9.40;99.90;;;;;;5039500;28;20560;-77
2023/12/21 10:18:12;;;;;;;2.93;0.87;;;9.40;99.90;;;;;;5043274;28;20506;-74
2023/12/21 10:20:40;;;;;;;1.60;0.80;;;9.40;99.90;;;;;;5042323;28;20507;-78
2023/12/21 10:23:09;;;;;;;2.63;0.70;;;9.40;99.90;;;;;;5041914;28;20476;-78
2023/12/21 10:25:38;;;;;;;1.50;0.63;;;9.30;99.90;;;;;;5044514;28;20516;-77
2023/12/21 10:28:08;;;;;;;1.70;0.90;;;9.30;99.90;;;;;;5043181;28;20475;-78
2023/12/21 10:30:37;;;;;;;1.70;0.90;;;9.30;99.90;;;;;;5038713;28;20480;-77
2023/12/21 10:33:04;;;;;;;4.43;0.90;;;9.30;99.90;;;;;;5042580;28;20593;-75
2023/12/21 10:35:31;;;;;;;9.23;1.43;;;9.40;99.90;;;;;;5036453;28;20551;-75
2023/12/21 10:37:58;;;;;;;2.57;0.70;;;9.40;99.90;;;;;;5016801;28;20901;-79
2023/12/21 10:40:25;;;;;;;9.63;1.50;;;9.50;99.90;;;;;;5054199;28;20512;-79
2023/12/21 10:42:52;;;;;;;4.13;1.00;;;9.60;99.90;;;;;;5055152;28;20721;-77
2023/12/21 10:45:21;;;;;;;1.47;0.63;;;9.60;99.90;;;;;;5060608;28;20559;-79
2023/12/21 10:47:52;;;;;;;1.50;0.60;;;9.60;99.90;;;;;;5059073;28;20477;-77
2023/12/21 10:50:20;;;;;;;1.60;0.60;;;9.70;99.90;;;;;;5042261;28;21126;-80
2023/12/21 10:52:48;;;;;;;2.93;0.93;;;9.70;99.90;;;;;;5068729;28;21112;-78
2023/12/21 10:55:16;;;;;;;1.60;0.77;;;9.80;99.90;;;;;;5048924;28;20521;-75
2023/12/21 10:57:45;;;;;;;4.10;1.00;;;9.60;99.90;;;;;;5064640;28;20558;-75
2023/12/21 11:00:15;;;;;;;1.97;0.70;;;9.70;99.90;;;;;;5059629;28;20562;-78
2023/12/21 11:02:46;;;;;;;1.70;0.73;;;9.70;99.90;;;;;;5047640;28;20508;-79
2023/12/21 11:05:19;;;;;;;1.50;0.70;;;9.70;99.90;;;;;;5042833;28;20951;-78
2023/12/21 11:07:47;;;;;;;1.50;0.60;;;;;;;;;;5043114;28;20474;-75
2023/12/21 11:10:14;;;;;;;9.33;1.57;;;9.60;99.90;;;;;;5066142;28;20554;-75
2023/12/21 11:12:41;;;;;;;3.63;0.60;;;9.70;99.90;;;;;;5062593;28;20491;-76
2023/12/21 11:15:09;;;;;;;1.50;0.60;;;9.70;99.90;;;;;;5052121;28;20992;-77
2023/12/21 11:17:38;;;;;;;5.33;1.00;;;9.60;99.90;;;;;;5073723;28;20462;-79
2023/12/21 11:20:09;;;;;;;18.93;1.63;;;9.60;99.90;;;;;;5057485;28;21086;-80
2023/12/21 11:22:38;;;;;;;4.20;1.00;;;9.70;99.90;;;;;;5059639;28;20556;-76
2023/12/21 11:25:08;;;;;;;1.50;0.60;;;9.60;99.90;;;;;;5058464;28;20558;-79
2023/12/21 11:27:37;;;;;;;4.90;0.80;;;9.80;99.90;;;;;;5061589;28;20491;-75
2023/12/21 11:30:11;;;;;;;1.60;0.60;;;9.70;99.90;;;;;;5061381;28;20486;-77
2023/12/21 11:32:39;;;;;;;4.07;1.03;;;9.80;99.90;;;;;;5060497;28;20482;-75
2023/12/21 11:35:19;;;;;;;1.60;0.60;;;9.80;99.90;;;;;;5051858;28;20908;-77
2023/12/21 11:37:49;;;;;;;12.33;1.57;;;9.80;99.90;;;;;;5056670;28;20766;-81
2023/12/21 11:40:18;;;;;;;1.60;0.60;;;9.60;99.90;;;;;;5037216;28;20562;-76
2023/12/21 11:42:47;;;;;;;4.50;0.83;;;9.70;99.90;;;;;;5049539;28;20539;-79
2023/12/21 11:45:22;;;;;;;1.40;0.60;;;9.80;99.90;;;;;;5060735;28;20923;-76
2023/12/21 11:47:49;;;;;;;1.80;1.13;;;9.80;99.90;;;;;;5057907;28;20502;-76
2023/12/21 11:50:21;;;;;;;1.80;0.70;;;9.70;99.90;;;;;;5061017;28;20558;-75
2023/12/21 11:52:49;;;;;;;6.20;1.13;;;9.80;99.90;;;;;;5059917;28;21004;-74
2023/12/21 11:55:25;;;;;;;1.60;0.60;;;9.80;99.90;;;;;;5039625;28;20501;-74
2023/12/21 11:58:07;;;;;;;1.70;0.77;;;9.90;99.90;;;;;;5034870;28;20556;-74
2023/12/21 12:00:35;;;;;;;3.00;0.73;;;10.00;99.90;;;;;;5044450;28;20483;-76
2023/12/21 12:03:02;;;;;;;7.63;0.90;;;9.90;99.90;;;;;;5048161;28;20532;-73
2023/12/21 12:05:30;;;;;;;22.63;1.67;;;10.00;99.90;;;;;;5070476;28;20941;-74
2023/12/21 12:07:57;;;;;;;1.40;0.57;;;10.00;99.90;;;;;;5056774;28;20495;-74
2023/12/21 12:10:24;;;;;;;1.60;0.67;;;10.00;99.90;;;;;;5058854;28;20498;-71
2023/12/21 12:12:52;;;;;;;2.10;0.97;;;10.10;99.90;;;;;;5058708;28;20554;-79
2023/12/21 12:15:19;;;;;;;5.20;1.03;;;10.10;99.90;;;;;;5055104;28;20575;-76
2023/12/21 12:17:46;;;;;;;1.60;0.77;;;10.10;99.90;;;;;;5029385;28;21062;-77
2023/12/21 12:20:14;;;;;;;1.47;0.50;;;10.10;99.90;;;;;;5063242;28;20589;-78
2023/12/21 12:22:44;;;;;;;1.93;0.77;;;10.10;99.90;;;;;;5054902;28;20566;-76
2023/12/21 12:25:12;;;;;;;1.50;0.60;;;10.20;99.90;;;;;;5063959;28;20544;-71
2023/12/21 12:27:39;;;;;;;1.50;0.50;;;10.10;99.90;;;;;;5054313;28;20861;-76
2023/12/21 12:30:08;;;;;;;1.70;0.70;;;10.20;99.90;;;;;;5052112;28;20506;-73
2023/12/21 12:32:34;;;;;;;13.93;1.33;;;10.20;99.90;;;;;;5069978;28;20482;-74
2023/12/21 12:35:02;;;;;;;1.50;0.70;;;10.10;99.90;;;;;;5060093;28;20506;-76
2023/12/21 12:37:31;;;;;;;2.97;0.80;;;10.10;99.90;;;;;;5048662;28;20493;-74
2023/12/21 12:39:59;;;;;;;1.50;0.60;;;10.20;99.90;;;;;;5056723;28;20920;-78
2023/12/21 12:42:27;;;;;;;1.60;0.80;;;10.20;99.90;;;;;;5050440;28;21031;-77
2023/12/21 12:44:54;;;;;;;1.50;0.60;;;10.20;99.90;;;;;;5061768;28;20487;-77
2023/12/21 12:47:21;;;;;;;5.93;1.20;;;10.30;99.90;;;;;;5057971;28;20483;-73
2023/12/21 12:49:47;;;;;;;1.50;0.60;;;10.30;99.90;;;;;;5057428;28;20522;-74
2023/12/21 12:52:16;;;;;;;4.23;0.80;;;10.30;99.90;;;;;;5054132;28;20513;-77
2023/12/21 12:54:43;;;;;;;7.07;1.53;;;10.30;99.90;;;;;;5051181;28;20851;-73
2023/12/21 12:57:12;;;;;;;1.40;0.60;;;10.30;99.90;;;;;;5058820;28;20507;-73
2023/12/21 12:59:39;;;;;;;1.50;0.63;;;10.40;99.90;;;;;;5050398;28;20475;-74
2023/12/21 13:02:06;;;;;;;4.03;0.73;;;10.40;99.90;;;;;;5053449;28;20519;-75